Time;durP1;ratioP1;P1;durP2;ratioP2;P2;SDS_P1;SDS_P2;PMS_P1;PMS_P2;Temp;Humidity;BMP_temperature;BMP_pressure;BME280_temperature;BME280_humidity;BME280_pressure;Samples;Min_cycle;Max_cycle;Signal;HPM_P1;HPM_P2
2024/04/05 00:00:47;;;;;;;26.73;5.93;;;13.10;91.80;;;;;;5043055;28;20120;-79
2024/04/05 00:03:13;;;;;;;23.38;5.50;;;13.10;91.70;;;;;;5046765;28;20113;-78
2024/04/05 00:05:39;;;;;;;26.52;5.95;;;13.10;91.90;;;;;;5044783;28;20036;-81
2024/04/05 00:08:04;;;;;;;21.23;5.18;;;13.10;91.90;;;;;;5029918;28;20025;-76
2024/04/05 00:10:30;;;;;;;21.70;5.63;;;13.10;92.00;;;;;;5045569;28;20102;-77
2024/04/05 00:12:56;;;;;;;24.63;5.93;;;13.00;92.20;;;;;;5032713;28;20468;-80
2024/04/05 00:15:22;;;;;;;20.98;5.28;;;13.00;92.40;;;;;;5045438;28;20634;-77
2024/04/05 00:17:48;;;;;;;26.25;6.50;;;13.00;92.40;;;;;;5041229;28;20072;-84
2024/04/05 00:20:14;;;;;;;17.88;4.93;;;13.00;92.50;;;;;;5049758;28;20063;-77
2024/04/05 00:22:40;;;;;;;18.48;4.95;;;13.00;92.70;;;;;;5032144;28;20454;-77
2024/04/05 00:25:06;;;;;;;22.33;5.60;;;13.00;92.80;;;;;;5042951;28;20056;-80
2024/04/05 00:27:32;;;;;;;23.50;5.15;;;13.10;93.00;;;;;;5064875;28;20033;-76
2024/04/05 00:30:01;;;;;;;19.63;5.28;;;13.10;93.10;;;;;;5065771;28;20353;-77
2024/04/05 00:32:26;;;;;;;20.48;5.28;;;13.10;93.20;;;;;;5077566;28;20055;-82
2024/04/05 00:34:52;;;;;;;20.45;5.50;;;13.10;93.30;;;;;;5065218;28;20040;-76
2024/04/05 00:37:18;;;;;;;18.90;5.55;;;13.10;93.40;;;;;;5048516;28;20814;-75
2024/04/05 00:39:44;;;;;;;19.88;5.72;;;13.10;93.50;;;;;;5063050;28;20028;-75
2024/04/05 00:42:09;;;;;;;19.52;4.95;;;13.10;93.50;;;;;;5065613;28;20033;-76
2024/04/05 00:44:35;;;;;;;18.38;4.70;;;13.10;93.50;;;;;;5063851;28;20345;-78
2024/04/05 00:47:01;;;;;;;16.85;5.07;;;13.10;93.50;;;;;;5045198;28;20465;-84
2024/04/05 00:49:27;;;;;;;23.33;4.97;;;13.10;93.60;;;;;;5048482;28;20418;-77
2024/04/05 00:51:55;;;;;;;22.63;5.95;;;13.10;93.60;;;;;;5057252;28;20600;-84
2024/04/05 00:54:21;;;;;;;24.77;5.20;;;13.10;93.60;;;;;;5060186;28;20062;-81
2024/04/05 00:56:48;;;;;;;16.52;4.20;;;13.10;93.70;;;;;;5064506;28;20334;-77
2024/04/05 00:59:15;;;;;;;16.88;4.70;;;13.10;93.80;;;;;;5065277;28;20119;-81
2024/04/05 01:01:41;;;;;;;23.33;5.25;;;13.10;93.90;;;;;;5062446;28;20036;-78
2024/04/05 01:04:09;;;;;;;22.63;5.07;;;13.10;94.00;;;;;;5061358;28;20182;-78
2024/04/05 01:06:35;;;;;;;13.65;4.80;;;13.10;94.10;;;;;;5064289;28;20714;-84
2024/04/05 01:09:00;;;;;;;16.67;5.25;;;13.10;94.00;;;;;;5064258;28;20021;-80
2024/04/05 01:11:26;;;;;;;15.70;4.70;;;13.20;94.00;;;;;;5065313;28;20037;-83
2024/04/05 01:13:52;;;;;;;20.08;4.82;;;13.20;94.00;;;;;;5061092;28;20060;-80
2024/04/05 01:16:18;;;;;;;16.23;5.00;;;13.20;94.10;;;;;;5064943;28;20076;-79
2024/04/05 01:18:44;;;;;;;17.60;5.03;;;13.20;94.30;;;;;;5063754;28;20433;-81
2024/04/05 01:21:09;;;;;;;21.00;5.20;;;13.20;94.40;;;;;;5064413;28;20036;-76
2024/04/05 01:23:42;;;;;;;17.73;5.45;;;13.30;94.40;;;;;;5052772;28;20035;-78
2024/04/05 01:26:08;;;;;;;17.42;5.00;;;13.30;94.40;;;;;;5056981;28;20067;-84
2024/04/05 01:28:34;;;;;;;17.33;5.07;;;13.30;94.50;;;;;;5062909;28;20094;-75
2024/04/05 01:31:00;;;;;;;18.55;5.03;;;13.30;94.50;;;;;;5055600;28;20033;-75
2024/04/05 01:33:26;;;;;;;21.05;4.47;;;13.30;94.50;;;;;;5065963;28;20461;-87
2024/04/05 01:35:51;;;;;;;21.10;5.22;;;13.40;94.50;;;;;;5055152;28;20013;-77
2024/04/05 01:38:17;;;;;;;15.90;4.07;;;13.40;94.60;;;;;;5062989;28;20094;-76
2024/04/05 01:40:43;;;;;;;18.90;4.63;;;13.50;94.60;;;;;;5063718;28;20044;-77
2024/04/05 01:43:09;;;;;;;18.25;5.00;;;13.40;94.50;;;;;;5063257;28;20023;-77
2024/04/05 01:45:35;;;;;;;16.13;4.70;;;13.40;94.60;;;;;;5057430;28;20381;-83
2024/04/05 01:48:00;;;;;;;22.90;4.88;;;13.50;94.60;;;;;;5063828;28;20444;-81
2024/04/05 01:50:26;;;;;;;20.48;4.97;;;13.50;94.60;;;;;;5071823;28;20129;-77
2024/04/05 01:52:51;;;;;;;15.85;4.07;;;13.50;94.80;;;;;;5070159;28;20044;-82
2024/04/05 01:55:17;;;;;;;16.25;4.60;;;13.50;94.80;;;;;;5063316;28;20639;-77
2024/04/05 01:57:43;;;;;;;19.58;5.05;;;13.50;94.80;;;;;;5064625;28;20037;-78
2024/04/05 02:00:10;;;;;;;17.45;5.05;;;13.50;94.80;;;;;;5057319;28;20037;-78
2024/04/05 02:02:36;;;;;;;19.65;5.15;;;13.50;94.80;;;;;;5063099;28;20070;-83
2024/04/05 02:05:02;;;;;;;17.50;4.43;;;13.50;94.80;;;;;;5061968;28;20048;-85
2024/04/05 02:07:27;;;;;;;17.45;4.72;;;13.50;94.80;;;;;;5064255;28;20438;-84
2024/04/05 02:09:53;;;;;;;23.30;6.15;;;13.60;94.90;;;;;;5062326;28;20045;-78
2024/04/05 02:12:21;;;;;;;21.42;6.60;;;13.60;94.90;;;;;;5064708;28;20067;-81
2024/04/05 02:14:47;;;;;;;16.60;4.93;;;13.50;95.00;;;;;;5064356;28;20939;-77
2024/04/05 02:17:13;;;;;;;21.52;5.43;;;13.50;95.10;;;;;;5064755;28;20104;-77
2024/04/05 02:19:39;;;;;;;19.30;5.32;;;13.50;95.20;;;;;;5065530;28;20043;-77
2024/04/05 02:22:05;;;;;;;19.13;4.93;;;13.50;95.20;;;;;;5051055;28;20118;-77
2024/04/05 02:24:31;;;;;;;15.50;4.60;;;13.50;95.20;;;;;;5045724;28;20031;-84
2024/04/05 02:26:57;;;;;;;18.52;5.30;;;13.50;95.20;;;;;;5065092;28;20489;-77
2024/04/05 02:29:23;;;;;;;22.52;5.10;;;13.50;95.20;;;;;;5063341;28;20465;-76
2024/04/05 02:31:49;;;;;;;17.25;5.43;;;13.40;95.40;;;;;;5062387;28;20093;-80
2024/04/05 02:34:14;;;;;;;15.32;5.00;;;13.40;95.50;;;;;;5063488;28;20039;-80
2024/04/05 02:36:40;;;;;;;12.80;5.28;;;13.40;95.60;;;;;;5061305;28;20446;-78
2024/04/05 02:39:06;;;;;;;18.10;4.85;;;13.30;95.60;;;;;;5059901;28;20032;-78
2024/04/05 02:41:32;;;;;;;14.85;4.55;;;13.30;95.70;;;;;;5058883;28;20028;-79
2024/04/05 02:43:58;;;;;;;16.63;4.30;;;13.40;95.60;;;;;;5057475;28;20025;-80
2024/04/05 02:46:24;;;;;;;22.17;4.75;;;13.40;95.60;;;;;;5061253;28;20082;-77
2024/04/05 02:48:50;;;;;;;22.08;5.22;;;13.30;95.60;;;;;;5058960;28;20021;-78
2024/04/05 02:51:18;;;;;;;18.13;5.40;;;13.30;95.60;;;;;;5057833;28;20526;-83
2024/04/05 02:53:44;;;;;;;15.13;4.15;;;13.30;95.70;;;;;;5067167;28;20048;-77
2024/04/05 02:56:10;;;;;;;21.80;5.43;;;13.30;95.70;;;;;;5061888;28;20036;-77
2024/04/05 02:58:36;;;;;;;18.00;4.72;;;13.30;95.80;;;;;;5060273;28;20033;-87
2024/04/05 03:01:02;;;;;;;19.73;5.53;;;13.30;95.80;;;;;;5061344;28;20029;-79
2024/04/05 03:03:28;;;;;;;18.83;5.20;;;13.20;95.80;;;;;;5062939;28;20036;-76
2024/04/05 03:05:53;;;;;;;16.02;5.15;;;13.20;95.80;;;;;;5062380;28;20028;-77
2024/04/05 03:08:19;;;;;;;20.58;5.00;;;13.30;95.90;;;;;;5063840;28;21533;-79
2024/04/05 03:10:45;;;;;;;15.93;4.93;;;13.20;96.00;;;;;;5054614;28;20029;-81
2024/04/05 03:13:10;;;;;;;18.10;5.30;;;13.30;96.00;;;;;;5068657;28;20126;-77
2024/04/05 03:15:36;;;;;;;21.27;5.72;;;13.30;95.90;;;;;;5065011;28;20112;-82
2024/04/05 03:18:02;;;;;;;20.38;5.88;;;13.20;95.90;;;;;;5065228;28;20377;-85
2024/04/05 03:20:29;;;;;;;23.15;5.90;;;13.30;96.00;;;;;;5065254;28;20410;-86
2024/04/05 03:22:54;;;;;;;17.77;5.55;;;13.30;96.00;;;;;;5067400;28;20029;-76
2024/04/05 03:25:20;;;;;;;17.70;5.57;;;13.20;96.00;;;;;;5060220;28;20055;-81
2024/04/05 03:27:47;;;;;;;24.65;6.05;;;13.10;96.00;;;;;;5068010;28;20032;-78
2024/04/05 03:30:13;;;;;;;16.83;5.35;;;13.20;95.90;;;;;;5062446;28;20035;-82
2024/04/05 03:32:39;;;;;;;21.30;6.28;;;13.20;96.00;;;;;;5069974;28;20025;-76
2024/04/05 03:35:06;;;;;;;18.95;5.57;;;13.10;96.10;;;;;;5063286;28;20040;-77
2024/04/05 03:37:32;;;;;;;21.55;5.53;;;13.10;96.00;;;;;;5065744;28;20115;-84
2024/04/05 03:39:58;;;;;;;24.38;6.22;;;13.10;96.00;;;;;;5065662;28;20029;-77
2024/04/05 03:42:23;;;;;;;16.77;5.40;;;13.10;96.00;;;;;;5060382;28;20028;-77
2024/04/05 03:44:49;;;;;;;20.20;5.70;;;13.10;96.10;;;;;;5055266;28;20056;-78
2024/04/05 03:47:15;;;;;;;18.45;5.82;;;13.10;96.10;;;;;;5063822;28;20064;-80
2024/04/05 03:49:41;;;;;;;17.02;5.53;;;13.10;96.20;;;;;;5058568;28;20693;-85
2024/04/05 03:52:07;;;;;;;16.92;4.72;;;13.10;96.10;;;;;;5064006;28;20159;-77
2024/04/05 03:54:32;;;;;;;18.85;6.13;;;13.20;96.10;;;;;;5056270;28;20092;-76
2024/04/05 03:56:58;;;;;;;18.95;5.15;;;13.20;96.00;;;;;;5069429;28;20024;-86
2024/04/05 03:59:26;;;;;;;23.90;5.63;;;13.20;96.00;;;;;;5065941;28;20437;-80
2024/04/05 04:01:52;;;;;;;16.30;5.10;;;13.20;95.90;;;;;;5064171;28;20751;-76
2024/04/05 04:04:19;;;;;;;15.88;5.18;;;13.30;95.80;;;;;;5052591;28;20029;-85
2024/04/05 04:06:45;;;;;;;17.92;5.22;;;13.30;95.70;;;;;;5065539;28;20029;-77
2024/04/05 04:09:11;;;;;;;17.00;5.53;;;13.30;95.70;;;;;;5064903;28;20029;-76
2024/04/05 04:11:37;;;;;;;18.00;5.28;;;13.40;95.60;;;;;;5065836;28;20839;-80
2024/04/05 04:14:03;;;;;;;18.45;5.10;;;13.40;95.60;;;;;;5065674;28;20020;-83
2024/04/05 04:16:30;;;;;;;16.35;5.13;;;13.40;95.60;;;;;;5066056;28;20050;-80
2024/04/05 04:18:55;;;;;;;21.88;5.15;;;13.40;95.50;;;;;;5064377;28;20032;-81
2024/04/05 04:21:25;;;;;;;18.45;5.30;;;13.40;95.50;;;;;;5061476;28;20032;-78
2024/04/05 04:23:51;;;;;;;17.95;5.75;;;13.40;95.40;;;;;;5045131;28;20025;-82
2024/04/05 04:26:17;;;;;;;17.50;6.03;;;13.40;95.40;;;;;;5059862;28;20124;-77
2024/04/05 04:28:43;;;;;;;19.48;5.70;;;13.40;95.50;;;;;;5061703;28;20096;-79
2024/04/05 04:31:23;;;;;;;20.02;6.05;;;13.50;95.40;;;;;;5063174;28;20455;-81
2024/04/05 04:33:52;;;;;;;20.90;6.78;;;13.50;95.40;;;;;;5063155;28;20068;-83
2024/04/05 04:36:19;;;;;;;19.85;5.55;;;13.50;95.30;;;;;;5052754;28;20891;-77
2024/04/05 04:38:46;;;;;;;17.33;6.03;;;13.50;95.30;;;;;;5060310;28;20052;-77
2024/04/05 04:41:14;;;;;;;20.33;5.78;;;13.50;95.30;;;;;;5060346;28;20060;-83
2024/04/05 04:43:43;;;;;;;19.27;6.15;;;13.50;95.30;;;;;;5058409;28;20414;-76
2024/04/05 04:46:16;;;;;;;14.90;5.13;;;13.40;95.30;;;;;;5061433;28;20055;-78
2024/04/05 04:48:42;;;;;;;18.05;5.55;;;13.40;95.40;;;;;;5059431;28;20043;-76
2024/04/05 04:51:09;;;;;;;16.92;5.63;;;13.40;95.20;;;;;;5061531;28;20029;-83
2024/04/05 04:53:34;;;;;;;19.05;5.93;;;13.40;95.10;;;;;;5057490;28;20082;-76
2024/04/05 04:56:00;;;;;;;15.95;5.10;;;13.40;95.10;;;;;;5065867;28;20075;-80
2024/04/05 04:58:29;;;;;;;15.20;4.70;;;13.40;95.20;;;;;;5065024;28;20861;-75
2024/04/05 05:00:55;;;;;;;16.17;5.65;;;13.40;95.20;;;;;;5045190;28;20544;-81
2024/04/05 05:03:23;;;;;;;16.20;4.82;;;13.40;95.20;;;;;;5056113;28;20887;-81
2024/04/05 05:05:49;;;;;;;18.00;4.75;;;13.40;95.30;;;;;;5062889;28;20392;-80
2024/04/05 05:08:14;;;;;;;16.13;5.15;;;13.40;95.30;;;;;;5061244;28;20024;-77
2024/04/05 05:10:42;;;;;;;13.27;4.65;;;13.40;95.20;;;;;;5063254;28;20037;-79
2024/04/05 05:13:14;;;;;;;16.50;4.43;;;13.50;95.10;;;;;;5057771;28;20051;-81
2024/04/05 05:15:41;;;;;;;12.73;4.00;;;13.50;95.00;;;;;;5062326;28;20627;-82
2024/04/05 05:18:08;;;;;;;14.85;4.15;;;13.50;94.80;;;;;;5053640;28;20381;-76
2024/04/05 05:20:34;;;;;;;16.85;5.28;;;13.60;94.70;;;;;;5061842;28;20056;-79
2024/04/05 05:22:59;;;;;;;14.15;4.47;;;13.50;94.70;;;;;;5064371;28;20506;-78
2024/04/05 05:25:25;;;;;;;16.48;3.95;;;13.50;94.60;;;;;;5050188;28;20044;-79
2024/04/05 05:27:51;;;;;;;13.90;4.00;;;13.50;94.50;;;;;;5078495;28;20040;-76
2024/04/05 05:30:16;;;;;;;15.13;4.20;;;13.60;94.40;;;;;;5063998;28;20126;-80
2024/04/05 05:32:43;;;;;;;12.63;4.47;;;13.60;94.40;;;;;;5063554;28;20040;-79
2024/04/05 05:35:09;;;;;;;13.57;4.38;;;13.60;94.30;;;;;;5064779;28;20037;-76
2024/04/05 05:37:34;;;;;;;13.57;4.47;;;13.60;94.20;;;;;;5068984;28;20506;-77
2024/04/05 05:40:00;;;;;;;14.00;4.38;;;13.70;94.00;;;;;;5063688;28;20123;-84
2024/04/05 05:42:29;;;;;;;14.82;4.53;;;13.70;93.80;;;;;;5063123;28;20036;-76
2024/04/05 05:44:55;;;;;;;12.95;4.85;;;13.70;93.70;;;;;;5058699;28;20032;-75
2024/04/05 05:47:21;;;;;;;14.70;4.35;;;13.80;93.50;;;;;;5063172;28;20380;-79
2024/04/05 05:49:50;;;;;;;11.77;4.60;;;13.80;93.40;;;;;;5058804;28;20112;-75
2024/04/05 05:52:16;;;;;;;12.68;3.80;;;13.80;93.30;;;;;;5041215;28;20040;-78
2024/04/05 05:54:42;;;;;;;10.50;3.33;;;13.80;93.10;;;;;;5052686;28;20157;-82
2024/04/05 05:57:07;;;;;;;12.10;3.90;;;13.80;93.00;;;;;;5058406;28;20944;-78
2024/04/05 05:59:33;;;;;;;12.63;4.30;;;13.80;93.00;;;;;;5061048;28;20428;-83
2024/04/05 06:01:59;;;;;;;9.48;4.40;;;13.90;92.70;;;;;;5063792;28;20054;-84
2024/04/05 06:04:25;;;;;;;12.48;4.13;;;13.90;92.60;;;;;;5059770;28;20109;-78
2024/04/05 06:06:51;;;;;;;12.45;3.80;;;13.90;92.50;;;;;;5062896;28;20425;-84
2024/04/05 06:09:20;;;;;;;14.20;4.05;;;13.90;92.30;;;;;;5063837;28;20678;-79
2024/04/05 06:11:46;;;;;;;12.23;3.80;;;14.00;92.10;;;;;;5061687;28;20626;-76
2024/04/05 06:14:12;;;;;;;11.85;3.47;;;14.00;92.10;;;;;;5062749;28;20020;-80
2024/04/05 06:16:38;;;;;;;10.68;3.28;;;14.00;91.90;;;;;;5062291;28;20044;-77
2024/04/05 06:19:03;;;;;;;13.27;3.70;;;14.10;91.70;;;;;;5063326;28;20029;-80
2024/04/05 06:21:30;;;;;;;13.38;3.40;;;14.10;91.60;;;;;;5064549;28;20459;-79
2024/04/05 06:23:59;;;;;;;9.75;3.03;;;14.10;91.40;;;;;;5063296;28;20025;-76
2024/04/05 06:26:25;;;;;;;9.82;2.83;;;14.10;91.20;;;;;;5060037;28;20094;-81
2024/04/05 06:28:51;;;;;;;10.25;3.00;;;14.10;91.10;;;;;;5060229;28;20060;-76
2024/04/05 06:31:17;;;;;;;9.25;2.80;;;14.20;90.90;;;;;;5057529;28;20105;-78
2024/04/05 06:33:44;;;;;;;10.10;3.13;;;14.30;90.60;;;;;;5045121;28;20481;-84
2024/04/05 06:36:09;;;;;;;11.10;3.35;;;14.30;90.50;;;;;;5056477;28;20032;-77
2024/04/05 06:38:35;;;;;;;9.95;2.97;;;14.40;90.30;;;;;;5064100;28;20035;-78
2024/04/05 06:41:01;;;;;;;10.63;2.40;;;14.40;90.10;;;;;;5058858;28;20113;-80
2024/04/05 06:43:28;;;;;;;10.75;2.90;;;14.50;89.70;;;;;;5063304;28;20096;-77
2024/04/05 06:46:04;;;;;;;6.60;2.90;;;14.60;89.40;;;;;;5062590;28;20036;-78
2024/04/05 06:48:31;;;;;;;11.82;3.35;;;14.60;89.20;;;;;;5057076;28;20021;-78
2024/04/05 06:50:57;;;;;;;9.20;3.00;;;14.70;89.10;;;;;;5056923;28;20044;-78
2024/04/05 06:53:30;;;;;;;6.80;2.42;;;14.70;89.00;;;;;;5057302;28;20035;-79
2024/04/05 06:55:55;;;;;;;6.72;2.75;;;14.80;88.70;;;;;;5053034;28;20555;-77
2024/04/05 06:58:22;;;;;;;10.43;2.60;;;14.80;88.40;;;;;;5060440;28;20028;-78
2024/04/05 07:00:48;;;;;;;12.75;2.70;;;14.80;88.20;;;;;;5054950;28;20615;-75
2024/04/05 07:03:14;;;;;;;9.02;2.42;;;14.80;88.30;;;;;;5051582;28;20033;-75
2024/04/05 07:05:40;;;;;;;8.85;2.45;;;14.80;88.10;;;;;;5057313;28;20037;-76
2024/04/05 07:08:07;;;;;;;7.00;2.38;;;14.80;88.10;;;;;;5055636;28;20025;-78
2024/04/05 07:10:33;;;;;;;9.77;2.47;;;14.80;88.00;;;;;;5053950;28;20584;-77
2024/04/05 07:12:59;;;;;;;10.27;3.00;;;14.90;88.00;;;;;;5057984;28;20024;-76
2024/04/05 07:15:25;;;;;;;8.85;2.50;;;14.80;88.10;;;;;;5054601;28;20063;-77
2024/04/05 07:17:52;;;;;;;9.23;2.40;;;14.90;88.20;;;;;;5061865;28;20052;-78
2024/04/05 07:20:24;;;;;;;6.90;2.20;;;14.90;88.10;;;;;;5055811;28;20067;-76
2024/04/05 07:22:52;;;;;;;6.75;2.33;;;14.90;88.10;;;;;;5057483;28;20496;-75
2024/04/05 07:25:21;;;;;;;7.50;2.38;;;14.90;88.30;;;;;;5036515;28;20055;-76
2024/04/05 07:27:51;;;;;;;7.45;2.55;;;14.90;88.20;;;;;;5056260;28;20035;-76
2024/04/05 07:30:18;;;;;;;7.78;3.05;;;14.80;88.10;;;;;;5057129;28;20047;-78
2024/04/05 07:32:44;;;;;;;8.90;2.50;;;14.90;88.10;;;;;;5059107;28;20495;-78
2024/04/05 07:35:09;;;;;;;7.55;2.75;;;15.00;88.10;;;;;;5038771;28;20040;-78
2024/04/05 07:37:35;;;;;;;8.60;3.35;;;14.90;88.40;;;;;;5056138;28;20039;-77
2024/04/05 07:40:01;;;;;;;10.15;2.88;;;14.90;88.40;;;;;;5056074;28;20322;-77
2024/04/05 07:42:27;;;;;;;9.50;2.40;;;14.90;88.50;;;;;;5041056;28;20044;-76
2024/04/05 07:44:54;;;;;;;7.13;2.60;;;14.90;88.60;;;;;;5071455;28;20055;-76
2024/04/05 07:47:20;;;;;;;9.93;2.53;;;14.90;88.30;;;;;;5055626;28;20504;-78
2024/04/05 07:49:45;;;;;;;7.88;2.10;;;15.00;88.20;;;;;;5056905;28;20037;-76
2024/04/05 07:52:11;;;;;;;7.65;2.30;;;15.00;87.90;;;;;;5056251;28;20057;-76
2024/04/05 07:54:36;;;;;;;9.25;2.67;;;15.00;87.60;;;;;;5057597;28;20029;-79
2024/04/05 07:57:03;;;;;;;7.60;2.45;;;15.00;87.30;;;;;;5049956;28;20112;-74
2024/04/05 07:59:29;;;;;;;5.68;2.00;;;15.10;87.40;;;;;;5056258;28;20175;-75
2024/04/05 08:01:55;;;;;;;6.38;2.55;;;15.10;87.30;;;;;;5048141;28;20036;-77
2024/04/05 08:04:20;;;;;;;5.95;2.25;;;15.10;87.60;;;;;;5059106;28;20027;-75
2024/04/05 08:06:46;;;;;;;8.50;2.55;;;15.10;87.70;;;;;;5058750;28;20041;-78
2024/04/05 08:09:12;;;;;;;7.68;2.15;;;15.10;87.60;;;;;;5060477;28;20718;-76
2024/04/05 08:11:38;;;;;;;8.10;2.30;;;15.10;87.50;;;;;;5070133;28;20033;-74
2024/04/05 08:14:03;;;;;;;8.63;2.78;;;15.10;87.30;;;;;;5063072;28;20047;-77
2024/04/05 08:16:29;;;;;;;7.47;2.38;;;15.10;87.20;;;;;;5057431;28;20028;-75
2024/04/05 08:18:55;;;;;;;8.55;2.38;;;15.10;87.30;;;;;;5060332;28;20031;-75
2024/04/05 08:21:22;;;;;;;5.78;2.60;;;15.10;87.50;;;;;;5059261;28;20021;-77
2024/04/05 08:23:48;;;;;;;9.10;2.55;;;15.10;87.40;;;;;;5060454;28;20115;-77
2024/04/05 08:26:13;;;;;;;7.00;2.20;;;15.10;87.40;;;;;;5056693;28;21204;-79
2024/04/05 08:28:39;;;;;;;8.80;2.97;;;15.20;87.30;;;;;;5059703;28;20024;-78
2024/04/05 08:31:04;;;;;;;7.40;2.53;;;15.20;87.20;;;;;;5061704;28;20450;-77
2024/04/05 08:33:31;;;;;;;5.15;2.00;;;15.20;87.30;;;;;;5060331;28;20736;-74
2024/04/05 08:35:56;;;;;;;8.85;2.95;;;15.20;87.70;;;;;;5058643;28;20037;-78
2024/04/05 08:38:22;;;;;;;8.57;2.58;;;15.10;88.00;;;;;;5055489;28;20032;-76
2024/04/05 08:40:49;;;;;;;10.75;2.58;;;15.10;88.20;;;;;;5042009;28;20119;-80
2024/04/05 08:43:17;;;;;;;6.78;2.33;;;15.10;88.20;;;;;;5060134;28;20024;-79
2024/04/05 08:45:44;;;;;;;7.90;2.63;;;15.20;88.40;;;;;;5057258;28;20121;-80
2024/04/05 08:48:10;;;;;;;11.18;3.30;;;15.20;88.30;;;;;;5059667;28;20024;-80
2024/04/05 08:50:37;;;;;;;6.25;2.70;;;15.30;88.30;;;;;;5058842;28;20042;-77
2024/04/05 08:53:04;;;;;;;7.35;2.78;;;15.20;88.20;;;;;;5059732;28;20028;-75
2024/04/05 08:55:32;;;;;;;9.45;2.60;;;15.20;88.50;;;;;;5039084;28;20027;-75
2024/04/05 08:57:59;;;;;;;6.47;3.15;;;15.30;88.40;;;;;;5062236;28;20461;-76
2024/04/05 09:00:24;;;;;;;9.38;2.50;;;15.40;88.30;;;;;;5062930;28;20029;-76
2024/04/05 09:02:54;;;;;;;8.52;2.80;;;15.40;88.20;;;;;;5060590;28;20033;-75
2024/04/05 09:05:20;;;;;;;10.07;2.63;;;15.60;88.10;;;;;;5055956;28;20036;-78
2024/04/05 09:07:50;;;;;;;8.20;2.88;;;15.70;87.80;;;;;;5059444;28;20032;-78
2024/04/05 09:10:19;;;;;;;6.63;2.60;;;15.90;87.30;;;;;;5059153;28;20054;-76
2024/04/05 09:12:52;;;;;;;7.45;2.97;;;16.10;86.90;;;;;;5062672;28;20116;-74
2024/04/05 09:15:24;;;;;;;7.50;2.90;;;16.30;86.70;;;;;;5057361;28;20053;-79
2024/04/05 09:17:50;;;;;;;8.18;2.78;;;16.30;86.20;;;;;;5062126;28;20032;-76
2024/04/05 09:20:29;;;;;;;9.38;2.95;;;16.20;85.70;;;;;;5059195;28;20028;-76
2024/04/05 09:23:02;;;;;;;12.27;3.25;;;16.20;86.10;;;;;;5052339;28;20083;-78
2024/04/05 09:25:28;;;;;;;7.28;2.60;;;16.10;86.00;;;;;;5055448;28;20173;-77
2024/04/05 09:28:10;;;;;;;8.13;2.78;;;16.10;86.20;;;;;;5051430;28;20033;-76
2024/04/05 09:30:36;;;;;;;6.80;2.38;;;16.00;86.30;;;;;;5051980;28;20631;-75
2024/04/05 09:33:03;;;;;;;7.82;2.53;;;15.90;86.40;;;;;;5055871;28;20040;-77
2024/04/05 09:35:37;;;;;;;5.97;2.47;;;15.90;86.30;;;;;;5056923;28;20035;-75
2024/04/05 09:38:04;;;;;;;7.30;2.70;;;16.00;86.60;;;;;;5058328;28;20039;-77
2024/04/05 09:40:33;;;;;;;10.60;3.38;;;16.10;86.50;;;;;;5041170;28;20077;-75
2024/04/05 09:43:01;;;;;;;8.70;2.92;;;16.20;86.00;;;;;;5040384;28;20722;-77
2024/04/05 09:45:31;;;;;;;9.00;2.80;;;16.30;85.60;;;;;;5058027;28;20059;-75
2024/04/05 09:47:57;;;;;;;8.32;2.97;;;16.30;85.30;;;;;;5057927;28;20043;-75
2024/04/05 09:50:23;;;;;;;12.98;3.10;;;16.40;85.50;;;;;;5058867;28;20116;-76
2024/04/05 09:52:53;;;;;;;9.23;3.10;;;16.40;85.50;;;;;;5057132;28;20596;-76
2024/04/05 09:55:28;;;;;;;8.88;2.80;;;16.30;85.80;;;;;;5056000;28;20693;-76
2024/04/05 09:57:55;;;;;;;10.38;2.67;;;16.30;86.00;;;;;;5054844;28;20119;-75
2024/04/05 10:00:23;;;;;;;7.93;2.83;;;16.30;86.20;;;;;;5052739;28;20083;-77
2024/04/05 10:02:57;;;;;;;10.43;3.00;;;16.30;86.10;;;;;;5056623;28;20036;-74
2024/04/05 10:05:32;;;;;;;9.15;3.05;;;16.20;86.10;;;;;;5055125;28;20495;-77
2024/04/05 10:08:18;;;;;;;8.23;3.30;;;16.10;86.20;;;;;;5055694;28;20036;-77
2024/04/05 10:10:44;;;;;;;7.10;2.97;;;16.10;87.10;;;;;;5054788;28;20032;-74
2024/04/05 10:13:12;;;;;;;8.45;2.80;;;16.10;87.80;;;;;;5037988;28;20126;-76
2024/04/05 10:15:50;;;;;;;10.48;2.88;;;16.10;88.50;;;;;;5052512;28;20086;-77
2024/04/05 10:18:26;;;;;;;11.00;3.38;;;16.10;88.70;;;;;;5056511;28;20024;-76
2024/04/05 10:21:03;;;;;;;12.35;3.00;;;16.00;89.10;;;;;;5053461;28;20568;-77
2024/04/05 10:23:30;;;;;;;7.05;3.20;;;15.90;89.50;;;;;;5055578;28;20020;-76
2024/04/05 10:25:56;;;;;;;8.95;3.20;;;15.90;90.00;;;;;;5053048;28;20122;-75
2024/04/05 10:28:22;;;;;;;8.63;3.15;;;15.90;89.80;;;;;;5048141;28;20019;-74
2024/04/05 10:30:49;;;;;;;6.65;2.92;;;15.90;89.90;;;;;;5040830;28;20064;-75
2024/04/05 10:33:19;;;;;;;7.82;3.10;;;15.70;90.10;;;;;;5050099;28;20256;-74
2024/04/05 10:35:49;;;;;;;7.90;2.97;;;15.70;90.10;;;;;;5049938;28;20117;-75
2024/04/05 10:38:16;;;;;;;8.93;2.90;;;15.70;90.00;;;;;;5052621;28;20444;-74
2024/04/05 10:40:56;;;;;;;7.28;2.58;;;15.70;90.00;;;;;;5038425;28;20033;-75
2024/04/05 10:43:22;;;;;;;7.28;2.83;;;15.70;89.60;;;;;;5036236;28;20032;-75
2024/04/05 10:45:55;;;;;;;5.97;2.72;;;15.80;89.50;;;;;;5032395;28;20346;-74
2024/04/05 10:48:25;;;;;;;5.67;2.23;;;16.00;89.30;;;;;;5055171;28;20027;-76
2024/04/05 10:50:52;;;;;;;7.30;2.70;;;16.10;88.30;;;;;;5052961;28;20349;-75
2024/04/05 10:53:19;;;;;;;5.80;2.60;;;16.10;88.00;;;;;;5054332;28;20039;-75
2024/04/05 10:55:46;;;;;;;9.88;3.15;;;16.30;88.00;;;;;;5052630;28;20514;-74
2024/04/05 10:58:12;;;;;;;7.18;2.60;;;16.50;87.50;;;;;;5054129;28;20465;-75
2024/04/05 11:00:39;;;;;;;8.10;2.90;;;16.50;87.00;;;;;;5052567;28;20698;-74
2024/04/05 11:03:09;;;;;;;7.10;2.78;;;16.60;86.90;;;;;;5054492;28;20021;-75
2024/04/05 11:05:36;;;;;;;8.35;2.88;;;16.90;86.10;;;;;;5050825;28;20115;-76
2024/04/05 11:08:04;;;;;;;9.27;2.70;;;17.00;85.80;;;;;;5053645;28;20032;-76
2024/04/05 11:10:37;;;;;;;9.00;2.47;;;17.00;85.00;;;;;;5052098;28;20351;-76
2024/04/05 11:13:18;;;;;;;11.03;2.60;;;17.10;84.00;;;;;;5053558;28;20056;-75
2024/04/05 11:15:44;;;;;;;7.32;2.50;;;17.70;83.40;;;;;;5051004;28;20032;-74
2024/04/05 11:18:11;;;;;;;8.32;2.30;;;18.10;82.10;;;;;;5053937;28;20031;-76
2024/04/05 11:20:39;;;;;;;8.32;2.90;;;18.50;80.40;;;;;;5050774;28;20040;-77
2024/04/05 11:23:07;;;;;;;7.68;2.55;;;18.80;80.50;;;;;;5054011;28;20643;-74
2024/04/05 11:25:34;;;;;;;8.40;2.45;;;18.90;78.40;;;;;;5051676;28;20052;-75
2024/04/05 11:28:14;;;;;;;8.85;2.75;;;18.80;78.30;;;;;;5053568;28;20012;-75
2024/04/05 11:30:43;;;;;;;6.47;2.50;;;18.90;78.70;;;;;;5050689;28;20059;-74
2024/04/05 11:33:09;;;;;;;9.25;2.53;;;19.10;77.00;;;;;;5052275;28;20032;-75
2024/04/05 11:35:35;;;;;;;6.30;2.25;;;19.10;76.60;;;;;;5055310;28;20111;-74
2024/04/05 11:38:01;;;;;;;7.07;2.35;;;19.20;76.60;;;;;;5058516;28;20017;-74
2024/04/05 11:40:27;;;;;;;7.28;2.70;;;19.10;75.60;;;;;;5058641;28;20033;-79
2024/04/05 11:42:53;;;;;;;7.80;2.47;;;19.20;76.60;;;;;;5040334;28;20063;-77
2024/04/05 11:45:19;;;;;;;6.00;2.28;;;19.60;76.60;;;;;;5052400;28;20132;-77
2024/04/05 11:47:48;;;;;;;5.97;2.47;;;19.90;76.10;;;;;;5059981;28;20055;-76
2024/04/05 11:50:14;;;;;;;7.90;2.65;;;20.10;75.00;;;;;;5053177;28;20056;-75
2024/04/05 11:52:40;;;;;;;5.95;2.17;;;19.90;74.00;;;;;;5058961;28;20068;-75
2024/04/05 11:55:08;;;;;;;6.10;2.28;;;19.90;73.40;;;;;;5055835;28;20465;-76
2024/04/05 11:57:34;;;;;;;7.95;2.50;;;19.60;73.50;;;;;;5059334;28;20051;-77
2024/04/05 12:00:05;;;;;;;8.65;2.58;;;19.40;73.30;;;;;;5059275;28;20104;-74
2024/04/05 12:02:31;;;;;;;9.48;2.28;;;19.30;73.00;;;;;;5060272;28;20485;-75
2024/04/05 12:04:57;;;;;;;6.28;2.10;;;19.30;72.10;;;;;;5059434;28;20032;-74
2024/04/05 12:07:23;;;;;;;7.85;2.35;;;19.00;73.40;;;;;;5053735;28;20051;-74
2024/04/05 12:09:48;;;;;;;7.95;2.60;;;19.00;73.10;;;;;;5060360;28;20032;-73
2024/04/05 12:12:14;;;;;;;7.45;2.78;;;19.20;72.80;;;;;;5059132;28;20037;-74
2024/04/05 12:14:40;;;;;;;8.85;2.80;;;19.40;73.50;;;;;;5061102;28;20123;-75
2024/04/05 12:17:06;;;;;;;9.32;2.35;;;19.10;72.50;;;;;;5056875;28;20048;-75
2024/04/05 12:19:32;;;;;;;9.20;2.88;;;18.80;72.40;;;;;;5057945;28;20100;-75
2024/04/05 12:21:58;;;;;;;8.90;2.50;;;18.50;72.60;;;;;;5057166;28;20033;-76
2024/04/05 12:24:24;;;;;;;8.30;2.55;;;18.60;73.10;;;;;;5060098;28;20025;-76
2024/04/05 12:26:50;;;;;;;8.38;2.50;;;18.40;72.60;;;;;;5060506;28;20083;-76
2024/04/05 12:29:16;;;;;;;8.38;2.20;;;18.40;71.80;;;;;;5059451;28;20154;-75
2024/04/05 12:31:43;;;;;;;8.95;2.55;;;18.20;72.00;;;;;;5059290;28;20685;-74
2024/04/05 12:34:08;;;;;;;9.02;2.80;;;18.20;72.50;;;;;;5062306;28;20016;-76
2024/04/05 12:36:34;;;;;;;12.13;2.65;;;18.10;72.60;;;;;;5055617;28;20693;-75
2024/04/05 12:39:07;;;;;;;7.63;2.17;;;18.10;72.50;;;;;;5062151;28;20016;-75